createdAt,value
2017-08-17T00:00:04.332Z,1002.42
2017-08-17T00:01:14.680Z,1002.43
2017-08-17T00:02:24.706Z,1002.44
2017-08-17T00:03:35.051Z,1002.41
2017-08-17T00:04:45.410Z,1002.44
2017-08-17T00:05:55.810Z,1002.45
2017-08-17T00:07:06.178Z,1002.42
2017-08-17T00:08:16.542Z,1002.45
2017-08-17T00:09:26.920Z,1002.42
2017-08-17T00:10:37.290Z,1002.42
2017-08-17T00:11:47.697Z,1002.45
2017-08-17T00:12:58.071Z,1002.43
2017-08-17T00:14:08.104Z,1002.46
2017-08-17T00:15:18.137Z,1002.51
2017-08-17T00:16:27.872Z,1002.51
2017-08-17T00:17:38.285Z,1002.51
2017-08-17T00:18:48.632Z,1002.48
2017-08-17T00:19:58.667Z,1002.49
2017-08-17T00:21:08.398Z,1002.49
2017-08-17T00:22:18.760Z,1002.52
2017-08-17T00:23:29.148Z,1002.52
2017-08-17T00:24:39.489Z,1002.49
2017-08-17T00:25:49.813Z,1002.49
2017-08-17T00:27:00.162Z,1002.47
2017-08-17T00:28:10.529Z,1002.51
2017-08-17T00:29:20.917Z,1002.51
2017-08-17T00:30:30.960Z,1002.53
2017-08-17T00:31:41.005Z,1002.51
2017-08-17T00:32:51.351Z,1002.52
2017-08-17T00:34:01.404Z,1002.55
2017-08-17T00:35:11.809Z,1002.56
2017-08-17T00:36:22.171Z,1002.52
2017-08-17T00:37:32.534Z,1002.54
2017-08-17T00:38:42.886Z,1002.53
2017-08-17T00:39:53.253Z,1002.55
2017-08-17T00:41:03.658Z,1002.58
2017-08-17T00:42:14.002Z,1002.56
2017-08-17T00:43:24.378Z,1002.58
2017-08-17T00:44:34.749Z,1002.55
2017-08-17T00:45:45.103Z,1002.57
2017-08-17T00:46:55.503Z,1002.55
2017-08-17T00:48:05.849Z,1002.57
2017-08-17T00:49:16.208Z,1002.56
2017-08-17T00:50:26.250Z,1002.54
2017-08-17T00:51:36.589Z,1002.55
2017-08-17T00:52:46.987Z,1002.54
2017-08-17T00:53:57.019Z,1002.54
2017-08-17T00:55:07.369Z,1002.54
2017-08-17T00:56:17.718Z,1002.53
2017-08-17T00:57:28.069Z,1002.52
2017-08-17T00:58:38.156Z,1002.54
2017-08-17T00:59:48.203Z,1002.5
2017-08-17T01:00:58.245Z,1002.52
2017-08-17T01:02:08.272Z,1002.54
2017-08-17T01:03:18.000Z,1002.55
2017-08-17T01:04:28.422Z,1002.54
2017-08-17T01:05:38.746Z,1002.55
2017-08-17T01:06:51.054Z,1002.54
2017-08-17T01:08:01.395Z,1002.55
2017-08-17T01:09:11.758Z,1002.53
2017-08-17T01:10:21.845Z,1002.56
2017-08-17T01:11:31.894Z,1002.55
2017-08-17T01:12:42.265Z,1002.55
2017-08-17T01:13:52.618Z,1002.54
2017-08-17T01:15:02.989Z,1002.56
2017-08-17T01:16:13.412Z,1002.54
2017-08-17T01:17:23.461Z,1002.57
2017-08-17T01:18:33.516Z,1002.56
2017-08-17T01:19:43.238Z,1002.55
2017-08-17T01:20:53.278Z,1002.49
2017-08-17T01:22:03.697Z,1002.52
2017-08-17T01:23:13.739Z,1002.5
2017-08-17T01:24:24.094Z,1002.5
2017-08-17T01:25:34.453Z,1002.5
2017-08-17T01:26:44.823Z,1002.47
2017-08-17T01:27:55.238Z,1002.44
2017-08-17T01:29:04.954Z,1002.5
2017-08-17T01:30:14.663Z,1002.44
2017-08-17T01:31:25.016Z,1002.49
2017-08-17T01:32:35.363Z,1002.44
2017-08-17T01:33:45.474Z,1002.45
2017-08-17T01:34:55.511Z,1002.48
2017-08-17T01:36:05.529Z,1002.43
2017-08-17T01:37:15.895Z,1002.41
2017-08-17T01:38:25.930Z,1002.42
2017-08-17T01:39:36.017Z,1002.42
2017-08-17T01:40:46.045Z,1002.39
2017-08-17T01:41:56.392Z,1002.39
2017-08-17T01:43:06.723Z,1002.37
2017-08-17T01:44:17.059Z,1002.39
2017-08-17T01:45:27.145Z,1002.36
2017-08-17T01:46:37.488Z,1002.38
2017-08-17T01:47:47.505Z,1002.38
2017-08-17T01:48:57.922Z,1002.35
2017-08-17T01:50:08.272Z,1002.38
2017-08-17T01:51:18.694Z,1002.36
2017-08-17T01:52:29.041Z,1002.35
2017-08-17T01:53:39.376Z,1002.34
2017-08-17T01:54:51.576Z,1002.34
2017-08-17T01:56:01.609Z,1002.35
2017-08-17T01:57:11.706Z,1002.34
2017-08-17T01:58:22.055Z,1002.32
2017-08-17T01:59:32.413Z,1002.32
2017-08-17T02:00:42.769Z,1002.35
2017-08-17T02:01:53.139Z,1002.35
2017-08-17T02:03:03.548Z,1002.33
2017-08-17T02:04:13.906Z,1002.33
2017-08-17T02:05:24.278Z,1002.29
2017-08-17T02:06:34.320Z,1002.26
2017-08-17T02:07:44.363Z,1002.27
2017-08-17T02:08:54.452Z,1002.26
2017-08-17T02:10:04.512Z,1002.25
2017-08-17T02:11:14.554Z,1002.25
2017-08-17T02:12:24.906Z,1002.2
2017-08-17T02:13:35.257Z,1002.22
2017-08-17T02:14:45.661Z,1002.18
2017-08-17T02:15:55.691Z,1002.2
2017-08-17T02:17:06.041Z,1002.2
2017-08-17T02:18:16.074Z,1002.18
2017-08-17T02:19:26.423Z,1002.22
2017-08-17T02:20:36.823Z,1002.23
2017-08-17T02:21:46.855Z,1002.25
2017-08-17T02:22:57.207Z,1002.19
2017-08-17T02:24:07.258Z,1002.18
2017-08-17T02:25:17.599Z,1002.18
2017-08-17T02:26:27.704Z,1002.26
2017-08-17T02:27:38.055Z,1002.2
2017-08-17T02:28:48.401Z,1002.21
2017-08-17T02:29:58.777Z,1002.24
2017-08-17T02:31:09.141Z,1002.26
2017-08-17T02:32:19.215Z,1002.27
2017-08-17T02:33:29.568Z,1002.28
2017-08-17T02:34:39.635Z,1002.31
2017-08-17T02:35:49.982Z,1002.28
2017-08-17T02:37:00.031Z,1002.29
2017-08-17T02:38:10.434Z,1002.27
2017-08-17T02:39:20.487Z,1002.25
2017-08-17T02:40:31.113Z,1002.27
2017-08-17T02:41:41.161Z,1002.26
2017-08-17T02:42:51.207Z,1002.24
2017-08-17T02:44:01.615Z,1002.25
2017-08-17T02:45:11.660Z,1002.19
2017-08-17T02:46:22.016Z,1002.22
2017-08-17T02:47:32.370Z,1002.24
2017-08-17T02:48:42.744Z,1002.23
2017-08-17T02:49:53.170Z,1002.25
2017-08-17T02:51:03.510Z,1002.26
2017-08-17T02:52:13.908Z,1002.3
2017-08-17T02:53:24.293Z,1002.3
2017-08-17T02:54:34.348Z,1002.29
2017-08-17T02:55:44.733Z,1002.3
2017-08-17T02:56:55.089Z,1002.22
2017-08-17T02:58:05.434Z,1002.21
2017-08-17T02:59:15.792Z,1002.23
2017-08-17T03:00:26.138Z,1002.2
2017-08-17T03:01:36.532Z,1002.27
2017-08-17T03:33:28.399Z,1002.37
2017-08-17T03:34:38.437Z,1002.41
2017-08-17T03:35:48.793Z,1002.37
2017-08-17T03:36:58.824Z,1002.38
2017-08-17T03:38:09.188Z,1002.39
2017-08-17T03:39:19.261Z,1002.36
2017-08-17T03:40:29.608Z,1002.36
2017-08-17T03:41:39.977Z,1002.39
2017-08-17T03:42:50.331Z,1002.36
2017-08-17T03:44:00.356Z,1002.41
2017-08-17T03:45:10.438Z,1002.4
2017-08-17T03:46:20.784Z,1002.41
2017-08-17T03:47:31.145Z,1002.38
2017-08-17T03:48:41.532Z,1002.42
2017-08-17T03:49:51.870Z,1002.4
2017-08-17T03:51:01.974Z,1002.44
2017-08-17T03:52:12.012Z,1002.47
2017-08-17T03:53:22.363Z,1002.46
2017-08-17T03:54:33.000Z,1002.47
2017-08-17T03:55:43.066Z,1002.52
2017-08-17T03:56:53.481Z,1002.49
2017-08-17T03:58:03.850Z,1002.49
2017-08-17T03:59:14.189Z,1002.53
2017-08-17T04:00:24.547Z,1002.52
2017-08-17T04:01:34.907Z,1002.51
2017-08-17T04:02:45.320Z,1002.48
2017-08-17T04:03:55.674Z,1002.47
2017-08-17T04:05:06.058Z,1002.44
2017-08-17T04:06:16.426Z,1002.46
2017-08-17T04:07:26.788Z,1002.44
2017-08-17T04:08:36.882Z,1002.48
2017-08-17T04:09:47.250Z,1002.47
2017-08-17T04:10:57.295Z,1002.45
2017-08-17T04:12:07.339Z,1002.51
2017-08-17T04:13:17.703Z,1002.51
2017-08-17T04:14:28.115Z,1002.55
2017-08-17T04:15:38.482Z,1002.55
2017-08-17T04:16:48.521Z,1002.54
2017-08-17T04:17:58.871Z,1002.59
2017-08-17T04:19:09.243Z,1002.56
2017-08-17T04:20:19.329Z,1002.6
2017-08-17T04:21:29.668Z,1002.55
2017-08-17T04:22:39.712Z,1002.55
2017-08-17T04:23:50.077Z,1002.52
2017-08-17T04:25:00.451Z,1002.56
2017-08-17T04:26:10.536Z,1002.53
2017-08-17T04:27:20.576Z,1002.51
2017-08-17T04:28:30.925Z,1002.5
2017-08-17T04:29:41.280Z,1002.52
2017-08-17T04:30:51.331Z,1002.51
2017-08-17T04:32:01.426Z,1002.56
2017-08-17T04:33:11.789Z,1002.59
2017-08-17T04:34:21.823Z,1002.59
2017-08-17T04:35:32.179Z,1002.67
2017-08-17T04:36:42.535Z,1002.63
2017-08-17T04:37:52.632Z,1002.58
2017-08-17T04:39:03.014Z,1002.61
2017-08-17T04:40:13.039Z,1002.82
2017-08-17T04:41:23.394Z,1002.74
2017-08-17T04:42:33.745Z,1002.8
2017-08-17T04:43:44.144Z,1002.71
2017-08-17T04:44:54.181Z,1002.72
2017-08-17T04:46:04.528Z,1002.74
2017-08-17T04:47:14.575Z,1002.69
2017-08-17T04:48:24.620Z,1002.67
2017-08-17T04:49:35.026Z,1002.81
2017-08-17T04:50:45.386Z,1002.85
2017-08-17T04:51:55.743Z,1002.96
2017-08-17T04:53:06.108Z,1002.91
2017-08-17T04:54:16.156Z,1002.82
2017-08-17T04:55:26.262Z,1003.02
2017-08-17T04:56:36.304Z,1003.08
2017-08-17T04:57:46.666Z,1002.99
2017-08-17T04:58:57.023Z,1002.99
2017-08-17T05:00:07.376Z,1003.08
2017-08-17T05:01:17.780Z,1003.1
2017-08-17T05:02:27.818Z,1003.12
2017-08-17T05:03:38.194Z,1003.12
2017-08-17T05:04:48.253Z,1003.11
2017-08-17T05:05:58.597Z,1003.12
2017-08-17T05:07:08.997Z,1003.12
2017-08-17T05:08:19.038Z,1003.15
2017-08-17T05:09:29.084Z,1003.17
2017-08-17T05:10:39.447Z,1003.18
2017-08-17T05:11:49.481Z,1003.22
2017-08-17T05:12:59.585Z,1003.23
2017-08-17T05:14:09.632Z,1003.24
2017-08-17T05:15:19.981Z,1003.29
2017-08-17T05:16:30.333Z,1003.27
2017-08-17T05:17:40.686Z,1003.28
2017-08-17T05:18:51.085Z,1003.31
2017-08-17T05:20:01.445Z,1003.3
2017-08-17T05:21:11.779Z,1003.55
2017-08-17T05:22:21.811Z,1003.8
2017-08-17T05:23:32.170Z,1003.67
2017-08-17T05:24:42.576Z,1003.62
2017-08-17T05:25:52.605Z,1003.6
2017-08-17T05:27:02.657Z,1003.61
2017-08-17T05:28:15.148Z,1003.53
2017-08-17T05:29:26.899Z,1003.46
2017-08-17T05:30:37.336Z,1003.45
2017-08-17T05:31:47.373Z,1003.5
2017-08-17T05:32:57.711Z,1003.56
2017-08-17T05:34:07.468Z,1003.52
2017-08-17T05:35:17.830Z,1003.48
2017-08-17T05:36:28.246Z,1003.41
2017-08-17T05:37:38.600Z,1003.47
2017-08-17T05:38:48.992Z,1003.45
2017-08-17T05:39:59.351Z,1003.44
2017-08-17T05:41:09.716Z,1003.49
2017-08-17T05:42:19.810Z,1003.54
2017-08-17T05:43:30.162Z,1003.47
2017-08-17T05:44:40.516Z,1003.4
2017-08-17T05:45:50.244Z,1003.38
2017-08-17T05:47:00.282Z,1003.38
2017-08-17T05:48:10.677Z,1003.46
2017-08-17T05:49:20.759Z,1003.45
2017-08-17T05:50:31.126Z,1003.45
2017-08-17T05:51:41.157Z,1003.39
2017-08-17T05:52:51.540Z,1003.12
2017-08-17T05:54:01.971Z,1002.93
2017-08-17T05:55:12.014Z,1002.91
2017-08-17T05:56:22.366Z,1002.94
2017-08-17T05:57:32.411Z,1002.99
2017-08-17T05:58:42.760Z,1002.93
2017-08-17T05:59:52.875Z,1002.87
2017-08-17T06:01:03.220Z,1002.86
2017-08-17T06:02:13.269Z,1002.88
2017-08-17T06:03:23.640Z,1002.88
2017-08-17T06:04:33.987Z,1002.95
2017-08-17T06:05:44.396Z,1003.07
2017-08-17T06:06:54.759Z,1003.06
2017-08-17T06:08:05.135Z,1003
2017-08-17T06:09:15.491Z,1002.99
2017-08-17T06:10:25.218Z,1002.98
2017-08-17T06:11:35.302Z,1002.98
2017-08-17T06:12:45.662Z,1003
2017-08-17T06:13:55.998Z,1002.98
2017-08-17T06:15:06.339Z,1002.97
2017-08-17T06:16:16.390Z,1002.99
2017-08-17T06:17:26.478Z,1003
2017-08-17T06:18:36.816Z,1003.02
2017-08-17T06:19:47.185Z,1003.03
2017-08-17T06:20:57.224Z,1003
2017-08-17T06:22:07.576Z,1003.02
2017-08-17T06:23:17.972Z,1003.01
2017-08-17T06:24:28.332Z,1003.04
2017-08-17T06:25:38.686Z,1003.01
2017-08-17T06:26:49.043Z,1002.98
2017-08-17T06:27:59.075Z,1003.02
2017-08-17T06:29:09.457Z,1002.98
2017-08-17T06:30:19.829Z,1002.97
2017-08-17T06:31:30.198Z,1003.03
2017-08-17T06:32:40.557Z,1002.97
2017-08-17T06:33:50.604Z,1003.01
2017-08-17T06:35:00.683Z,1003
2017-08-17T06:36:11.051Z,1003
2017-08-17T06:37:21.394Z,1002.95
2017-08-17T06:38:31.431Z,1002.98
2017-08-17T06:39:41.792Z,1002.96
2017-08-17T06:40:52.206Z,1002.94
2017-08-17T06:42:02.563Z,1002.92
2017-08-17T06:43:12.923Z,1002.93
2017-08-17T06:44:23.280Z,1002.93
2017-08-17T06:45:33.653Z,1002.96
2017-08-17T06:46:43.737Z,1003.02
2017-08-17T06:47:53.793Z,1002.99
2017-08-17T06:49:04.145Z,1003.02
2017-08-17T06:50:13.880Z,1002.97
2017-08-17T06:51:24.245Z,1002.95
2017-08-17T06:52:34.331Z,1002.92
2017-08-17T06:53:44.674Z,1002.94
2017-08-17T06:54:54.391Z,1002.93
2017-08-17T06:56:04.728Z,1002.92
2017-08-17T06:57:15.078Z,1002.9
2017-08-17T06:58:25.475Z,1002.9
2017-08-17T06:59:35.503Z,1002.91
2017-08-17T07:00:45.874Z,1002.95
2017-08-17T07:01:55.928Z,1002.96
2017-08-17T07:03:05.961Z,1002.95
2017-08-17T07:04:16.062Z,1003.04
2017-08-17T07:05:26.404Z,1002.98
2017-08-17T07:06:36.738Z,1002.98
2017-08-17T07:07:47.093Z,1002.97
2017-08-17T07:08:57.140Z,1002.99
2017-08-17T07:10:07.542Z,1002.98
2017-08-17T07:11:17.910Z,1003.02
2017-08-17T07:12:28.271Z,1003
2017-08-17T07:13:38.622Z,1003.06
2017-08-17T07:14:49.000Z,1003.06
2017-08-17T07:15:59.393Z,1003.07
2017-08-17T07:17:09.125Z,1003.04
2017-08-17T07:18:19.478Z,1003.03
2017-08-17T07:19:29.828Z,1003.01
2017-08-17T07:20:40.188Z,1003.03
2017-08-17T07:21:52.640Z,1003.06
2017-08-17T07:23:02.677Z,1003.09
2017-08-17T07:24:13.320Z,1003.09
2017-08-17T07:25:23.671Z,1003.08
2017-08-17T07:26:34.028Z,1003.08
2017-08-17T07:27:44.607Z,1003.06
2017-08-17T07:28:54.959Z,1003.09
2017-08-17T07:30:05.310Z,1003.09
2017-08-17T07:31:15.361Z,1003.13
2017-08-17T07:32:25.717Z,1003.14
2017-08-17T07:33:36.134Z,1003.09
2017-08-17T07:34:46.474Z,1003.16
2017-08-17T07:35:56.512Z,1003.14
2017-08-17T07:37:06.864Z,1003.16
2017-08-17T07:38:17.220Z,1003.18
2017-08-17T07:39:27.613Z,1003.13
2017-08-17T07:40:37.652Z,1003.12
2017-08-17T07:41:47.702Z,1003.13
2017-08-17T07:42:58.057Z,1003.14
2017-08-17T07:44:08.412Z,1003.14
2017-08-17T07:45:18.796Z,1003.16
2017-08-17T07:46:29.158Z,1003.09
2017-08-17T07:47:39.198Z,1003.08
2017-08-17T07:48:49.575Z,1003.11
2017-08-17T07:49:59.934Z,1003.06
2017-08-17T07:51:10.345Z,1003.09
2017-08-17T07:52:19.767Z,1003.09
2017-08-17T07:53:29.808Z,1003.11
2017-08-17T07:54:39.835Z,1003.09
2017-08-17T07:55:50.191Z,1003.06
2017-08-17T07:57:00.589Z,1003.03
2017-08-17T07:58:10.640Z,1003.05
2017-08-17T07:59:20.999Z,1003.05
2017-08-17T08:00:31.350Z,1003.05
2017-08-17T08:01:41.389Z,1003.05
2017-08-17T08:02:51.483Z,1003.06
2017-08-17T08:04:01.836Z,1003.06
2017-08-17T08:05:11.891Z,1003.1
2017-08-17T08:06:22.235Z,1003.05
2017-08-17T08:07:32.590Z,1003.07
2017-08-17T08:08:43.021Z,1003.09
2017-08-17T08:09:53.382Z,1003.06
2017-08-17T08:11:03.716Z,1003.04
2017-08-17T08:12:14.067Z,1003.01
2017-08-17T08:13:24.419Z,1002.98
2017-08-17T08:14:34.507Z,1003.01
2017-08-17T08:15:44.883Z,1003.04
2017-08-17T08:16:54.934Z,1003.04
2017-08-17T08:18:05.317Z,1002.99
2017-08-17T08:19:15.664Z,1002.98
2017-08-17T08:20:25.415Z,1003.02
2017-08-17T08:21:35.455Z,1002.98
2017-08-17T08:22:45.926Z,1002.96
2017-08-17T08:23:56.276Z,1002.94
2017-08-17T08:25:06.309Z,1002.89
2017-08-17T08:26:16.713Z,1002.9
2017-08-17T08:27:27.073Z,1002.9
2017-08-17T08:28:37.106Z,1002.9
2017-08-17T08:29:47.156Z,1002.89
2017-08-17T08:30:57.200Z,1002.96
2017-08-17T08:32:07.603Z,1003.01
2017-08-17T08:33:19.028Z,1003
2017-08-17T08:34:32.934Z,1003.02
2017-08-17T08:35:42.982Z,1003.01
2017-08-17T08:36:53.353Z,1002.93
2017-08-17T08:38:03.875Z,1002.92
2017-08-17T08:39:13.921Z,1002.99
2017-08-17T08:40:24.279Z,1002.98
2017-08-17T08:41:34.331Z,1003.01
2017-08-17T08:42:44.372Z,1002.97
2017-08-17T08:43:54.713Z,1002.99
2017-08-17T08:45:04.748Z,1002.98
2017-08-17T08:46:15.098Z,1002.95
2017-08-17T08:47:25.016Z,1002.9
2017-08-17T08:48:35.364Z,1002.92
2017-08-17T08:49:45.410Z,1002.87
2017-08-17T08:50:55.768Z,1002.88
2017-08-17T08:52:06.111Z,1002.87
2017-08-17T08:53:16.613Z,1002.81
2017-08-17T08:54:26.969Z,1002.84
2017-08-17T08:55:37.333Z,1002.8
2017-08-17T08:56:47.374Z,1002.79
2017-08-17T08:57:57.107Z,1002.73
2017-08-17T08:59:07.522Z,1002.76
2017-08-17T09:00:17.248Z,1002.73
2017-08-17T09:01:27.600Z,1002.72
2017-08-17T09:02:39.613Z,1002.74
2017-08-17T09:03:49.955Z,1002.72
2017-08-17T09:05:00.363Z,1002.7
2017-08-17T09:06:10.694Z,1002.7
2017-08-17T09:07:21.045Z,1002.68
2017-08-17T09:08:33.466Z,1002.66
2017-08-17T09:09:43.812Z,1002.69
2017-08-17T09:10:54.218Z,1002.7
2017-08-17T09:12:04.589Z,1002.65
2017-08-17T09:13:14.644Z,1002.65
2017-08-17T09:14:25.004Z,1002.71
2017-08-17T09:15:35.370Z,1002.67
2017-08-17T09:16:45.765Z,1002.66
2017-08-17T09:17:56.124Z,1002.64
2017-08-17T09:19:06.478Z,1002.63
2017-08-17T09:20:16.527Z,1002.59
2017-08-17T09:21:26.923Z,1002.59
2017-08-17T09:22:37.009Z,1002.56
2017-08-17T09:23:47.364Z,1002.59
2017-08-17T09:24:57.407Z,1002.58
2017-08-17T09:26:07.777Z,1002.56
2017-08-17T09:27:18.119Z,1002.59
2017-08-17T09:28:28.220Z,1002.58
2017-08-17T09:29:38.577Z,1002.54
2017-08-17T09:30:48.608Z,1002.51
2017-08-17T09:31:58.971Z,1002.53
2017-08-17T09:33:09.325Z,1002.5
2017-08-17T09:34:19.412Z,1002.45
2017-08-17T09:35:29.452Z,1002.47
2017-08-17T09:36:39.814Z,1002.44
2017-08-17T09:37:49.848Z,1002.42
2017-08-17T09:38:59.907Z,1002.39
2017-08-17T09:40:09.684Z,1002.43
2017-08-17T09:41:20.054Z,1002.39
2017-08-17T09:42:30.415Z,1002.39
2017-08-17T09:43:40.766Z,1002.37
2017-08-17T09:44:50.805Z,1002.36
2017-08-17T09:46:01.229Z,1002.37
2017-08-17T09:47:11.581Z,1002.32
2017-08-17T09:48:21.950Z,1002.31
2017-08-17T09:49:32.309Z,1002.28
2017-08-17T09:50:43.321Z,1002.29
2017-08-17T09:51:53.113Z,1002.31
2017-08-17T09:53:03.148Z,1002.24
2017-08-17T09:54:13.524Z,1002.29
2017-08-17T09:55:23.874Z,1002.28
2017-08-17T09:56:34.221Z,1002.3
2017-08-17T09:57:44.620Z,1002.25
2017-08-17T09:58:54.992Z,1002.29
2017-08-17T10:00:05.039Z,1002.3
2017-08-17T10:01:15.399Z,1002.31
2017-08-17T10:02:25.748Z,1002.25
2017-08-17T10:03:36.156Z,1002.28
2017-08-17T10:04:46.193Z,1002.24
2017-08-17T10:05:56.568Z,1002.23
2017-08-17T10:07:06.922Z,1002.24
2017-08-17T10:08:17.262Z,1002.26
2017-08-17T10:09:26.718Z,1002.23
2017-08-17T10:10:37.075Z,1002.23
2017-08-17T10:11:47.429Z,1002.22
2017-08-17T10:12:57.788Z,1002.2
2017-08-17T10:14:08.151Z,1002.14
2017-08-17T10:15:17.963Z,1002.2
2017-08-17T10:16:27.999Z,1002.17
2017-08-17T10:17:38.356Z,1002.11
2017-08-17T10:18:48.714Z,1002.19
2017-08-17T10:19:58.758Z,1002.18
2017-08-17T10:21:09.866Z,1002.12
2017-08-17T10:22:20.258Z,1002.16
2017-08-17T10:23:29.986Z,1002.15
2017-08-17T10:24:40.031Z,1002.13
2017-08-17T10:25:50.074Z,1002.09
2017-08-17T10:27:00.491Z,1002.09
2017-08-17T10:28:10.852Z,1002.12
2017-08-17T10:29:21.193Z,1002.13
2017-08-17T10:30:31.568Z,1002.08
2017-08-17T10:31:41.910Z,1002.07
2017-08-17T10:32:52.323Z,1002.04
2017-08-17T10:34:02.386Z,1002
2017-08-17T10:35:12.781Z,1001.97
2017-08-17T10:36:23.148Z,1001.95
2017-08-17T10:37:33.190Z,1001.93
2017-08-17T10:38:43.602Z,1001.95
2017-08-17T10:39:55.471Z,1001.95
2017-08-17T10:41:05.840Z,1002.03
2017-08-17T10:42:15.889Z,1002.01
2017-08-17T10:43:26.236Z,1002.04
2017-08-17T10:44:36.642Z,1002.01
2017-08-17T10:45:46.997Z,1001.98
2017-08-17T10:46:57.346Z,1001.98
2017-08-17T10:48:07.698Z,1001.99
2017-08-17T10:49:18.045Z,1001.96
2017-08-17T10:50:28.168Z,1001.92
2017-08-17T10:51:38.522Z,1001.92
2017-08-17T10:52:48.245Z,1001.87
2017-08-17T10:53:58.592Z,1001.89
2017-08-17T10:55:08.947Z,1001.81
2017-08-17T10:56:19.037Z,1001.82
2017-08-17T10:57:30.941Z,1001.79
2017-08-17T10:58:41.290Z,1001.81
2017-08-17T10:59:51.661Z,1001.82
2017-08-17T11:01:02.007Z,1001.78
2017-08-17T11:02:14.158Z,1001.81
2017-08-17T11:03:24.519Z,1001.83
2017-08-17T11:04:34.923Z,1001.79
2017-08-17T11:05:44.965Z,1001.75
2017-08-17T11:06:55.011Z,1001.76
2017-08-17T11:08:04.745Z,1001.71
2017-08-17T11:09:14.801Z,1001.72
2017-08-17T11:10:25.165Z,1001.69
2017-08-17T11:11:35.538Z,1001.68
2017-08-17T11:12:45.606Z,1001.63
2017-08-17T11:13:55.963Z,1001.69
2017-08-17T11:15:06.000Z,1001.66
2017-08-17T11:16:16.096Z,1001.65
2017-08-17T11:17:26.188Z,1001.67
2017-08-17T11:18:36.530Z,1001.66
2017-08-17T11:19:46.907Z,1001.67
2017-08-17T11:20:57.259Z,1001.69
2017-08-17T11:22:07.603Z,1001.7
2017-08-17T11:23:17.674Z,1001.69
2017-08-17T11:24:28.046Z,1001.73
2017-08-17T11:25:38.098Z,1001.71
2017-08-17T11:26:48.149Z,1001.72
2017-08-17T11:27:58.198Z,1001.64
2017-08-17T11:29:08.605Z,1001.65
2017-08-17T11:30:18.962Z,1001.63
2017-08-17T11:31:29.328Z,1001.64
2017-08-17T11:32:39.693Z,1001.57
2017-08-17T11:33:49.897Z,1001.52
2017-08-17T11:35:00.306Z,1001.52
2017-08-17T11:36:11.377Z,1001.49
2017-08-17T11:37:23.043Z,1001.44
2017-08-17T11:38:33.407Z,1001.47
2017-08-17T11:39:43.758Z,1001.48
2017-08-17T11:40:54.162Z,1001.45
2017-08-17T11:42:04.536Z,1001.41
2017-08-17T11:43:14.895Z,1001.41
2017-08-17T11:44:25.233Z,1001.38
2017-08-17T11:45:35.600Z,1001.31
2017-08-17T11:46:46.004Z,1001.33
2017-08-17T11:47:55.760Z,1001.27
2017-08-17T11:49:06.104Z,1001.27
2017-08-17T11:50:16.151Z,1001.27
2017-08-17T11:51:26.495Z,1001.23
2017-08-17T11:52:36.584Z,1001.23
2017-08-17T11:53:46.931Z,1001.25
2017-08-17T11:54:56.989Z,1001.21
2017-08-17T11:56:07.338Z,1001.21
2017-08-17T11:57:17.386Z,1001.21
2017-08-17T11:58:27.464Z,1001.22
2017-08-17T11:59:37.501Z,1001.21
2017-08-17T12:00:48.846Z,1001.23
2017-08-17T12:02:00.989Z,1001.16
2017-08-17T12:03:11.350Z,1001.19
2017-08-17T12:04:21.445Z,1001.13
2017-08-17T12:05:31.576Z,1001.13
2017-08-17T12:06:41.388Z,1001.13
2017-08-17T12:07:51.761Z,1001.15
2017-08-17T12:09:02.095Z,1001.18
2017-08-17T12:10:12.185Z,1001.16
2017-08-17T12:11:22.246Z,1001.16
2017-08-17T12:12:34.919Z,1001.16
2017-08-17T12:13:46.825Z,1001.13
2017-08-17T12:14:57.196Z,1001.12
2017-08-17T12:16:08.466Z,1001.12
2017-08-17T12:17:18.830Z,1001.09
2017-08-17T12:18:29.179Z,1001.08
2017-08-17T12:19:39.541Z,1001.12
2017-08-17T12:20:49.913Z,1001.05
2017-08-17T12:22:00.343Z,1001.08
2017-08-17T12:23:10.705Z,1001.03
2017-08-17T12:24:21.064Z,1001.05
2017-08-17T12:25:31.114Z,1001.06
2017-08-17T12:26:41.461Z,1001.04
2017-08-17T12:27:53.417Z,1000.99
2017-08-17T12:29:03.781Z,1000.97
2017-08-17T12:30:14.127Z,1000.97
2017-08-17T12:31:24.168Z,1000.97
2017-08-17T12:32:34.216Z,1000.98
2017-08-17T12:33:44.310Z,1001
2017-08-17T12:34:54.664Z,1000.98
2017-08-17T12:36:05.377Z,1000.97
2017-08-17T12:37:15.417Z,1000.9
2017-08-17T12:38:25.160Z,1000.9
2017-08-17T12:39:35.552Z,1000.92
2017-08-17T12:40:45.582Z,1000.89
2017-08-17T12:41:55.939Z,1000.87
2017-08-17T12:43:05.984Z,1000.9
2017-08-17T12:44:16.632Z,1000.86
2017-08-17T12:45:29.215Z,1000.85
2017-08-17T12:46:39.571Z,1000.82
2017-08-17T12:47:49.920Z,1000.83
2017-08-17T12:49:00.290Z,1000.85
2017-08-17T12:50:10.646Z,1000.84
2017-08-17T12:51:21.054Z,1000.86
2017-08-17T12:52:31.405Z,1000.84
2017-08-17T12:53:41.772Z,1000.82
2017-08-17T12:54:52.154Z,1000.81
2017-08-17T12:56:02.517Z,1000.78
2017-08-17T12:57:12.908Z,1000.75
2017-08-17T12:58:22.977Z,1000.73
2017-08-17T12:59:33.333Z,1000.67
2017-08-17T13:00:43.699Z,1000.66
2017-08-17T13:01:54.035Z,1000.65
2017-08-17T13:03:04.123Z,1000.64
2017-08-17T13:04:15.696Z,1000.64
2017-08-17T13:05:25.741Z,1000.62
2017-08-17T13:06:36.097Z,1000.63
2017-08-17T13:07:46.446Z,1000.64
2017-08-17T13:08:56.541Z,1000.65
2017-08-17T13:10:06.908Z,1000.64
2017-08-17T13:11:17.280Z,1000.66
2017-08-17T13:12:27.652Z,1000.66
2017-08-17T13:13:38.010Z,1000.64
2017-08-17T13:14:48.123Z,1000.65
2017-08-17T13:15:58.489Z,1000.62
2017-08-17T13:17:08.846Z,1000.61
2017-08-17T13:18:19.190Z,1000.6
2017-08-17T13:19:29.547Z,1000.58
2017-08-17T13:20:46.999Z,1000.57
2017-08-17T13:21:57.045Z,1000.56
2017-08-17T13:23:09.121Z,1000.56
2017-08-17T13:24:19.150Z,1000.55
2017-08-17T13:25:29.495Z,1000.55
2017-08-17T13:26:39.593Z,1000.53
2017-08-17T13:27:49.934Z,1000.53
2017-08-17T13:29:00.316Z,1000.54
2017-08-17T13:30:10.687Z,1000.47
2017-08-17T13:31:21.050Z,1000.44
2017-08-17T13:32:31.456Z,1000.45
2017-08-17T13:33:41.508Z,1000.45
2017-08-17T13:34:51.868Z,1000.43
2017-08-17T13:36:03.620Z,1000.42
2017-08-17T13:37:14.003Z,1000.4
2017-08-17T13:38:24.413Z,1000.36
2017-08-17T13:39:34.467Z,1000.39
2017-08-17T13:40:44.828Z,1000.39
2017-08-17T13:41:55.171Z,1000.37
2017-08-17T13:43:06.573Z,1000.31
2017-08-17T13:44:16.998Z,1000.29
2017-08-17T13:45:27.372Z,1000.28
2017-08-17T13:46:37.727Z,1000.25
2017-08-17T13:47:48.076Z,1000.26
2017-08-17T13:48:58.116Z,1000.25
2017-08-17T13:50:08.229Z,1000.28
2017-08-17T13:51:18.603Z,1000.25
2017-08-17T13:52:28.638Z,1000.28
2017-08-17T13:53:39.007Z,1000.23
2017-08-17T13:54:49.373Z,1000.24
2017-08-17T13:55:59.788Z,1000.26
2017-08-17T13:57:09.824Z,1000.29
2017-08-17T13:58:20.196Z,1000.25
2017-08-17T13:59:33.818Z,1000.22
2017-08-17T14:00:44.172Z,1000.23
2017-08-17T14:01:54.597Z,1000.22
2017-08-17T14:03:04.650Z,1000.18
2017-08-17T14:04:15.021Z,1000.18
2017-08-17T14:05:25.069Z,1000.14
2017-08-17T14:06:35.424Z,1000.09
2017-08-17T14:07:45.854Z,1000.07
2017-08-17T14:08:57.085Z,1000.07
2017-08-17T14:10:06.860Z,1000.03
2017-08-17T14:11:17.545Z,1000.01
2017-08-17T14:12:27.920Z,1000.02
2017-08-17T14:13:38.026Z,1000.01
2017-08-17T14:14:49.626Z,999.97
2017-08-17T14:15:59.986Z,999.99
2017-08-17T14:17:10.346Z,999.97
2017-08-17T14:18:20.690Z,999.97
2017-08-17T14:19:30.782Z,1000
2017-08-17T14:20:40.843Z,999.97
2017-08-17T14:21:51.210Z,999.97
2017-08-17T14:23:01.569Z,999.96
2017-08-17T14:24:11.935Z,999.95
2017-08-17T14:25:21.731Z,999.94
2017-08-17T14:26:32.070Z,999.93
2017-08-17T14:27:42.126Z,999.94
2017-08-17T14:28:52.481Z,999.91
2017-08-17T14:30:02.862Z,999.88
2017-08-17T14:31:13.282Z,999.85
2017-08-17T14:32:23.639Z,999.88
2017-08-17T14:33:33.998Z,999.89
2017-08-17T14:34:44.352Z,999.87
2017-08-17T14:35:54.716Z,999.89
2017-08-17T14:37:04.824Z,999.85
2017-08-17T14:38:14.884Z,999.91
2017-08-17T14:39:25.256Z,999.87
2017-08-17T14:40:35.292Z,999.87
2017-08-17T14:41:45.357Z,999.87
2017-08-17T14:42:55.444Z,999.86
2017-08-17T14:44:05.809Z,999.88